Time;durP1;ratioP1;P1;durP2;ratioP2;P2;SDS_P1;SDS_P2;PMS_P1;PMS_P2;Temp;Humidity;BMP_temperature;BMP_pressure;BME280_temperature;BME280_humidity;BME280_pressure;Samples;Min_cycle;Max_cycle;Signal;HPM_P1;HPM_P2
2022/01/03 00:00:12;;;;;;;6.82;1.38;;;;;;;13.16;61.07;99533.97;346103;28;1036;-73
2022/01/03 00:00:28;;;;;;;6.20;1.30;;;;;;;13.08;61.08;99528.25;344861;28;1043;-73
2022/01/03 00:00:51;;;;;;;4.28;1.98;;;;;;;13.06;61.26;99524.00;344716;28;1415;-73
2022/01/03 00:01:04;;;;;;;4.72;1.45;;;;;;;13.06;61.07;99485.72;344643;28;1036;-73
2022/01/03 00:01:21;;;;;;;4.88;1.30;;;;;;;13.07;61.50;99530.94;345100;28;1074;-73
2022/01/03 00:01:39;;;;;;;4.88;1.25;;;;;;;13.04;61.34;99546.72;344859;28;1054;-73
2022/01/03 00:01:54;;;;;;;4.35;1.40;;;;;;;13.13;61.36;99541.94;345190;28;1066;-73
2022/01/03 00:02:16;;;;;;;2.80;1.30;;;;;;;13.12;61.19;99528.94;344857;28;1047;-72
2022/01/03 00:02:30;;;;;;;4.00;1.20;;;;;;;13.12;61.47;99529.81;345205;28;1324;-71
2022/01/03 00:02:48;;;;;;;5.68;1.40;;;;;;;13.11;61.30;99533.31;345054;28;1074;-73
2022/01/03 00:03:04;;;;;;;5.80;1.30;;;;;;;13.21;61.06;99528.53;345030;28;1042;-73
2022/01/03 00:03:17;;;;;;;5.53;1.20;;;;;;;13.23;60.78;99528.47;345175;28;1280;-73
2022/01/03 00:03:30;;;;;;;5.57;1.17;;;;;;;13.17;60.85;99540.88;345010;28;1085;-72
2022/01/03 00:03:42;;;;;;;6.22;1.10;;;;;;;13.23;60.93;99536.31;345040;28;1202;-73
2022/01/03 00:03:55;;;;;;;6.05;1.23;;;;;;;13.18;61.05;99534.75;344891;28;1091;-73
2022/01/03 00:04:09;;;;;;;4.75;1.30;;;;;;;13.20;60.82;99526.88;344821;28;1085;-73
2022/01/03 00:04:21;;;;;;;4.45;1.00;;;;;;;13.22;60.88;99526.78;344803;28;1141;-73
2022/01/03 00:04:35;;;;;;;5.10;0.98;;;;;;;13.17;60.94;99516.56;345031;28;1063;-73
2022/01/03 00:04:47;;;;;;;6.80;1.20;;;;;;;13.17;61.04;99513.94;344899;28;1059;-72
2022/01/03 00:05:02;;;;;;;5.80;1.23;;;;;;;13.22;60.87;99532.00;344773;28;1292;-73
2022/01/03 00:05:14;;;;;;;3.63;1.17;;;;;;;13.19;60.90;99531.22;345882;28;996;-73
2022/01/03 00:05:46;;;;;;;2.38;1.08;;;;;;;13.17;61.28;99550.47;344879;28;1019;-73
2022/01/03 00:05:59;;;;;;;3.65;1.20;;;;;;;13.16;61.15;99520.09;344200;28;1395;-73
2022/01/03 00:06:14;;;;;;;4.22;1.27;;;;;;;13.14;60.98;99537.59;344956;28;1300;-73
2022/01/03 00:06:26;;;;;;;5.32;1.13;;;;;;;13.11;61.37;99517.66;344908;28;858;-73
2022/01/03 00:06:47;;;;;;;4.22;1.00;;;;;;;13.11;61.45;99511.59;345016;28;1083;-73
2022/01/03 00:07:01;;;;;;;4.13;1.13;;;;;;;13.09;61.68;99510.84;345135;28;1054;-72
2022/01/03 00:07:16;;;;;;;4.43;1.20;;;;;;;13.10;61.36;99516.00;344874;28;1027;-72
2022/01/03 00:07:33;;;;;;;6.10;1.20;;;;;;;13.03;61.67;99511.94;344975;28;1059;-74
2022/01/03 00:07:49;;;;;;;6.40;1.20;;;;;;;13.04;61.66;99554.53;346204;28;999;-73
2022/01/03 00:08:08;;;;;;;4.22;1.15;;;;;;;13.01;61.75;99529.44;344801;28;1277;-72
2022/01/03 00:08:23;;;;;;;4.35;1.20;;;;;;;13.02;61.32;99502.44;344936;28;1040;-72
2022/01/03 00:08:38;;;;;;;4.40;1.30;;;;;;;13.02;61.38;99523.31;344811;28;1277;-72
2022/01/03 00:08:50;;;;;;;4.50;1.42;;;;;;;13.03;61.34;99514.56;344897;28;1267;-73
2022/01/03 00:09:03;;;;;;;4.15;1.40;;;;;;;13.04;61.51;99500.63;344883;28;952;-73
2022/01/03 00:09:16;;;;;;;3.03;1.13;;;;;;;13.03;61.44;99517.16;344993;28;1095;-72
2022/01/03 00:09:32;;;;;;;3.30;1.10;;;;;;;13.12;61.24;99508.06;345001;28;1055;-72
2022/01/03 00:09:45;;;;;;;3.92;1.20;;;;;;;13.15;61.33;99513.16;344855;28;1364;-74
2022/01/03 00:09:57;;;;;;;3.75;1.27;;;;;;;13.11;61.04;99554.19;344982;28;1039;-73
2022/01/03 00:10:11;;;;;;;4.43;1.33;;;;;;;13.12;61.26;99519.38;344976;28;1067;-73
2022/01/03 00:10:24;;;;;;;5.53;1.27;;;;;;;13.13;61.15;99515.84;346105;28;1145;-73
2022/01/03 00:10:36;;;;;;;5.22;1.30;;;;;;;13.11;61.08;99543.75;344915;28;1252;-72
2022/01/03 00:10:49;;;;;;;4.18;1.30;;;;;;;13.06;61.36;99488.34;345063;28;1102;-73
2022/01/03 00:11:01;;;;;;;4.65;1.27;;;;;;;13.04;61.46;99490.19;344994;28;1311;-72
2022/01/03 00:11:16;;;;;;;4.60;1.40;;;;;;;13.04;61.61;99529.31;345016;28;1319;-73
2022/01/03 00:11:28;;;;;;;4.80;1.63;;;;;;;13.09;61.41;99509.06;345069;28;1182;-73
2022/01/03 00:11:40;;;;;;;4.63;1.40;;;;;;;13.08;61.33;99496.06;344893;28;1055;-73
2022/01/03 00:11:52;;;;;;;5.28;1.35;;;;;;;13.10;61.27;99502.94;344999;28;1311;-73
2022/01/03 00:12:32;;;;;;;4.90;1.10;;;;;;;13.03;61.37;99509.34;345026;28;1079;-73
2022/01/03 00:12:45;;;;;;;2.63;1.00;;;;;;;13.07;61.53;99510.91;343893;28;1229;-73
2022/01/03 00:12:57;;;;;;;2.90;1.10;;;;;;;13.10;61.63;99520.34;346214;28;1018;-71
2022/01/03 00:13:09;;;;;;;3.60;1.23;;;;;;;13.08;61.56;99507.38;344942;28;1016;-71
2022/01/03 00:13:23;;;;;;;4.30;1.30;;;;;;;13.08;61.75;99502.16;345046;28;1311;-71
2022/01/03 00:13:35;;;;;;;3.90;1.38;;;;;;;13.13;61.45;99509.78;345213;28;1026;-73
2022/01/03 00:13:50;;;;;;;3.72;1.30;;;;;;;13.03;61.65;99495.44;344960;28;1179;-72
2022/01/03 00:14:03;;;;;;;4.35;1.10;;;;;;;12.97;61.63;99520.06;345008;28;1341;-73
2022/01/03 00:14:15;;;;;;;4.63;1.05;;;;;;;12.96;61.60;99502.72;344711;28;1305;-73
2022/01/03 00:14:28;;;;;;;6.25;1.13;;;;;;;13.01;61.88;99505.94;344995;28;1979;-73
2022/01/03 00:14:40;;;;;;;5.60;1.17;;;;;;;12.95;61.51;99521.88;344908;28;1043;-72
2022/01/03 00:14:54;;;;;;;5.65;1.10;;;;;;;12.93;61.96;99516.72;345109;28;1063;-73
2022/01/03 00:15:09;;;;;;;6.80;1.20;;;;;;;12.95;61.96;99519.28;344748;28;1111;-73
2022/01/03 00:15:24;;;;;;;5.90;1.30;;;;;;;12.95;61.93;99498.41;344897;28;1288;-73
2022/01/03 00:15:36;;;;;;;4.65;1.33;;;;;;;12.97;61.77;99499.19;345867;28;1138;-73
2022/01/03 00:15:48;;;;;;;3.83;1.30;;;;;;;12.98;61.59;99521.75;345096;28;1290;-72
2022/01/03 00:16:00;;;;;;;4.45;1.40;;;;;;;12.99;61.43;99511.22;344894;28;1192;-73
2022/01/03 00:16:15;;;;;;;4.85;1.40;;;;;;;12.98;61.77;99506.09;344950;28;1095;-72
2022/01/03 00:16:29;;;;;;;4.80;1.33;;;;;;;12.96;61.70;99468.81;344764;28;957;-72
2022/01/03 00:16:44;;;;;;;5.22;1.42;;;;;;;12.97;61.60;99517.44;344942;28;1175;-73
2022/01/03 00:16:56;;;;;;;4.93;1.60;;;;;;;12.99;61.62;99499.97;344512;28;1109;-73
2022/01/03 00:17:10;;;;;;;3.63;1.50;;;;;;;12.96;61.52;99492.28;344825;28;1047;-72
2022/01/03 00:17:29;;;;;;;4.72;1.35;;;;;;;12.96;61.70;99519.22;344700;28;1083;-74
2022/01/03 00:17:43;;;;;;;5.40;1.40;;;;;;;12.97;61.73;99520.06;344864;28;1086;-72
2022/01/03 00:17:55;;;;;;;4.43;1.27;;;;;;;13.03;61.20;99498.91;343636;28;1285;-73
2022/01/03 00:18:07;;;;;;;4.35;1.10;;;;;;;13.05;61.23;99485.78;344340;28;1116;-72
2022/01/03 00:18:19;;;;;;;3.65;1.00;;;;;;;13.08;60.82;99511.72;343442;28;1170;-73
2022/01/03 00:18:31;;;;;;;3.10;1.00;;;;;;;13.10;61.04;99500.34;343781;28;950;-73
2022/01/03 00:18:43;;;;;;;3.15;1.05;;;;;;;13.15;60.88;99539.25;343655;28;1043;-72
2022/01/03 00:18:58;;;;;;;3.38;1.10;;;;;;;13.11;60.74;99515.06;343466;28;1284;-72
2022/01/03 00:19:15;;;;;;;2.83;1.00;;;;;;;13.02;61.35;99544.19;343461;28;1243;-73
2022/01/03 00:19:30;;;;;;;3.10;1.00;;;;;;;13.07;61.25;99510.06;343519;28;1068;-73
2022/01/03 00:19:46;;;;;;;4.00;0.90;;;;;;;13.04;61.54;99547.59;343628;28;1184;-73
2022/01/03 00:19:57;;;;;;;4.82;1.10;;;;;;;13.02;61.55;99538.97;344388;28;1073;-72
2022/01/03 00:20:12;;;;;;;4.18;1.13;;;;;;;13.00;61.21;99514.72;344808;28;942;-73
2022/01/03 00:20:26;;;;;;;5.13;1.17;;;;;;;13.10;61.27;99516.00;345214;28;827;-73
2022/01/03 00:20:39;;;;;;;6.25;1.40;;;;;;;13.08;61.33;99512.59;344733;28;1320;-72
2022/01/03 00:21:00;;;;;;;5.13;1.48;;;;;;;13.08;61.32;99528.25;345325;28;1085;-72
2022/01/03 00:21:16;;;;;;;3.58;1.02;;;;;;;12.99;61.52;99518.22;344816;28;1100;-73
2022/01/03 00:21:41;;;;;;;3.63;1.08;;;;;;;12.96;61.80;99531.41;344798;28;1157;-71
2022/01/03 00:21:57;;;;;;;5.20;1.35;;;;;;;12.97;61.87;99517.44;344836;28;1088;-72
2022/01/03 00:22:14;;;;;;;4.15;1.30;;;;;;;12.95;61.80;99501.00;344874;28;1026;-73
2022/01/03 00:22:37;;;;;;;3.95;1.30;;;;;;;13.06;61.77;99504.00;344934;28;1046;-73
2022/01/03 00:22:50;;;;;;;6.68;1.40;;;;;;;13.04;61.30;99526.72;344866;28;1289;-73
2022/01/03 00:23:05;;;;;;;6.25;1.40;;;;;;;13.09;61.20;99524.72;344923;28;1033;-73
2022/01/03 00:23:22;;;;;;;4.10;1.27;;;;;;;13.12;61.20;99528.94;345383;28;910;-72
2022/01/03 00:23:37;;;;;;;3.65;1.20;;;;;;;13.03;61.38;99540.66;344606;28;1054;-73
2022/01/03 00:24:01;;;;;;;2.63;1.02;;;;;;;12.98;61.62;99537.41;345040;28;1006;-73
2022/01/03 00:24:16;;;;;;;4.35;1.05;;;;;;;12.97;61.70;99525.28;345038;28;1151;-72
2022/01/03 00:24:32;;;;;;;4.30;1.00;;;;;;;12.95;61.61;99516.66;344860;28;952;-72
2022/01/03 00:24:48;;;;;;;4.32;1.38;;;;;;;12.91;61.83;99530.75;344658;28;1035;-73
2022/01/03 00:25:07;;;;;;;4.75;1.40;;;;;;;12.92;62.01;99535.91;344727;28;1058;-73
2022/01/03 00:25:22;;;;;;;4.60;1.30;;;;;;;12.95;61.83;99547.97;345340;28;848;-73
2022/01/03 00:25:37;;;;;;;4.13;1.25;;;;;;;12.96;61.70;99528.81;344711;28;1055;-73
2022/01/03 00:25:56;;;;;;;3.70;1.40;;;;;;;12.98;61.84;99533.03;344922;28;1042;-72
2022/01/03 00:26:10;;;;;;;4.05;1.30;;;;;;;13.00;61.18;99527.75;344913;28;1051;-73
2022/01/03 00:26:26;;;;;;;4.35;1.17;;;;;;;13.04;61.26;99544.97;344879;28;1138;-72
2022/01/03 00:26:39;;;;;;;4.65;1.27;;;;;;;13.06;61.34;99548.34;344768;28;1065;-73
2022/01/03 00:26:59;;;;;;;4.18;1.30;;;;;;;13.08;61.07;99528.25;345039;28;1182;-72
2022/01/03 00:27:19;;;;;;;4.28;1.30;;;;;;;13.10;60.95;99531.66;344799;28;1105;-73
2022/01/03 00:27:43;;;;;;;4.00;1.20;;;;;;;13.06;61.27;99556.19;344514;28;1050;-72
2022/01/03 00:27:58;;;;;;;5.43;1.48;;;;;;;13.01;61.32;99534.66;345071;28;1238;-73
2022/01/03 00:28:21;;;;;;;6.55;1.60;;;;;;;13.06;61.51;99542.28;345010;28;1006;-72
2022/01/03 00:28:34;;;;;;;5.72;1.30;;;;;;;13.08;61.46;99563.91;345742;28;1023;-73
2022/01/03 00:28:53;;;;;;;5.05;1.23;;;;;;;13.10;60.96;99549.91;344909;28;1086;-73
2022/01/03 00:29:14;;;;;;;5.03;1.20;;;;;;;13.11;60.90;99577.69;344856;28;1103;-73
2022/01/03 00:29:31;;;;;;;6.90;1.33;;;;;;;13.00;61.11;99556.47;344908;28;1253;-72
2022/01/03 00:29:47;;;;;;;5.53;1.40;;;;;;;13.03;60.91;99550.25;344843;28;1347;-72
2022/01/03 00:29:59;;;;;;;6.20;1.50;;;;;;;13.09;60.93;99555.19;344892;28;1200;-73
2022/01/03 00:30:12;;;;;;;5.40;1.20;;;;;;;13.09;60.61;99549.97;344966;28;1047;-72
2022/01/03 00:30:25;;;;;;;4.68;1.20;;;;;;;13.09;60.54;99576.06;344771;28;1298;-72
2022/01/03 00:30:40;;;;;;;5.05;1.10;;;;;;;13.08;60.98;99554.34;344763;28;1334;-73
2022/01/03 00:30:56;;;;;;;4.88;1.10;;;;;;;13.07;61.12;99552.66;343583;28;1088;-72
2022/01/03 00:31:08;;;;;;;3.40;1.00;;;;;;;13.07;61.00;99576.13;344059;28;1173;-73
2022/01/03 00:31:21;;;;;;;2.85;0.90;;;;;;;13.10;60.64;99541.22;343684;28;1284;-73
2022/01/03 00:31:38;;;;;;;2.67;0.90;;;;;;;13.16;60.68;99557.47;343730;28;1142;-72
2022/01/03 00:31:55;;;;;;;4.50;1.10;;;;;;;13.15;60.46;99566.19;343445;28;1186;-73
2022/01/03 00:32:09;;;;;;;6.95;1.20;;;;;;;13.16;60.46;99547.03;343438;28;1080;-72
2022/01/03 00:32:22;;;;;;;7.10;1.30;;;;;;;13.16;60.50;99564.47;343412;28;1103;-72
2022/01/03 00:32:38;;;;;;;5.68;1.45;;;;;;;13.19;60.17;99544.25;343557;28;1103;-73
2022/01/03 00:32:51;;;;;;;4.53;1.48;;;;;;;13.12;60.68;99549.81;343538;28;952;-73
2022/01/03 00:33:04;;;;;;;4.55;1.27;;;;;;;13.08;60.63;99559.56;344655;28;1301;-73
2022/01/03 00:33:19;;;;;;;5.22;1.10;;;;;;;13.13;60.43;99543.69;343328;28;1322;-72
2022/01/03 00:33:32;;;;;;;4.55;1.00;;;;;;;13.16;60.26;99536.59;343374;28;1121;-73
2022/01/03 00:33:49;;;;;;;5.68;1.10;;;;;;;13.13;60.18;99604.56;344157;28;1039;-71
2022/01/03 00:34:04;;;;;;;5.13;1.20;;;;;;;13.13;60.22;99568.03;343242;28;1059;-73
2022/01/03 00:34:16;;;;;;;3.28;1.38;;;;;;;13.14;60.53;99538.41;343374;28;1071;-73
2022/01/03 00:34:33;;;;;;;3.90;1.50;;;;;;;13.15;60.30;99581.03;343454;28;1235;-73
2022/01/03 00:34:50;;;;;;;4.35;1.55;;;;;;;13.11;60.99;99546.38;343156;28;1039;-73
2022/01/03 00:35:03;;;;;;;4.53;1.45;;;;;;;13.21;60.23;99559.03;343218;28;1285;-73
2022/01/03 00:35:16;;;;;;;5.28;1.33;;;;;;;13.21;60.41;99538.16;343653;28;1347;-73
2022/01/03 00:35:29;;;;;;;5.43;1.45;;;;;;;13.19;60.29;99635.63;344787;28;1032;-73
2022/01/03 00:35:41;;;;;;;4.72;1.30;;;;;;;13.12;60.73;99555.91;344695;28;1337;-73
2022/01/03 00:36:00;;;;;;;4.10;1.20;;;;;;;13.10;60.65;99562.97;344803;28;1899;-73
2022/01/03 00:36:12;;;;;;;4.00;1.02;;;;;;;13.17;60.16;99577.41;345040;28;1241;-72
2022/01/03 00:36:27;;;;;;;4.28;1.05;;;;;;;13.13;60.31;99535.88;345225;28;1188;-73
2022/01/03 00:36:42;;;;;;;4.32;1.15;;;;;;;13.12;60.45;99568.97;345171;28;844;-73
2022/01/03 00:36:55;;;;;;;3.97;1.20;;;;;;;13.11;60.37;99584.69;344946;28;1096;-73
2022/01/03 00:37:09;;;;;;;4.28;1.40;;;;;;;13.11;60.61;99564.66;344786;28;1254;-73
2022/01/03 00:37:26;;;;;;;4.20;1.40;;;;;;;13.10;60.56;99567.31;344913;28;1077;-73
2022/01/03 00:37:42;;;;;;;4.80;1.20;;;;;;;13.06;60.64;99561.41;344624;28;1336;-73
2022/01/03 00:37:59;;;;;;;5.43;1.10;;;;;;;13.11;60.64;99554.19;344513;28;1051;-73
2022/01/03 00:38:18;;;;;;;3.30;1.00;;;;;;;13.10;60.68;99570.78;344656;28;1067;-73
2022/01/03 00:38:33;;;;;;;4.10;1.20;;;;;;;13.02;61.05;99565.06;345159;28;784;-72
2022/01/03 00:38:45;;;;;;;4.60;1.27;;;;;;;13.04;61.12;99557.16;344627;28;937;-73
2022/01/03 00:38:57;;;;;;;3.60;1.20;;;;;;;13.06;61.15;99561.41;345194;28;1015;-73
2022/01/03 00:39:10;;;;;;;3.40;1.17;;;;;;;13.06;61.15;99561.41;344783;28;1118;-73
2022/01/03 00:39:22;;;;;;;2.92;1.20;;;;;;;13.06;61.42;99564.00;344652;28;1031;-72
2022/01/03 00:39:34;;;;;;;2.28;1.20;;;;;;;13.12;61.24;99558.53;344742;28;1338;-73
2022/01/03 00:39:46;;;;;;;2.42;1.13;;;;;;;13.09;61.07;99558.66;344794;28;1308;-72
2022/01/03 00:40:00;;;;;;;3.92;1.13;;;;;;;13.05;61.23;99558.84;344502;28;1047;-73
2022/01/03 00:40:14;;;;;;;5.22;1.15;;;;;;;13.08;60.69;99563.91;344842;28;1793;-72
2022/01/03 00:40:26;;;;;;;5.05;1.20;;;;;;;13.07;61.09;99572.69;344498;28;1067;-71
2022/01/03 00:40:40;;;;;;;4.68;1.30;;;;;;;13.08;60.66;99543.91;344403;28;1423;-73
2022/01/03 00:40:55;;;;;;;5.50;1.33;;;;;;;13.09;60.80;99561.25;344707;28;1287;-72
2022/01/03 00:41:07;;;;;;;4.63;1.20;;;;;;;13.11;60.78;99559.41;344764;28;1622;-74
2022/01/03 00:41:21;;;;;;;4.03;1.15;;;;;;;13.08;60.88;99527.38;344638;28;1047;-73
2022/01/03 00:41:39;;;;;;;4.03;1.30;;;;;;;13.08;60.76;99554.34;344704;28;1366;-74
2022/01/03 00:41:51;;;;;;;4.45;1.50;;;;;;;13.08;61.00;99554.34;344585;28;1272;-72
2022/01/03 00:42:03;;;;;;;4.75;1.40;;;;;;;13.14;60.99;99550.63;344783;28;1075;-72
2022/01/03 00:42:15;;;;;;;5.75;1.30;;;;;;;13.13;60.95;99560.19;344722;28;1200;-73
2022/01/03 00:42:27;;;;;;;5.00;1.30;;;;;;;13.06;61.06;99577.06;344772;28;1031;-73
2022/01/03 00:42:40;;;;;;;4.90;1.30;;;;;;;13.11;60.93;99558.59;344630;28;1062;-73
2022/01/03 00:42:53;;;;;;;5.50;1.48;;;;;;;13.11;60.87;99562.03;344652;28;1115;-73
2022/01/03 00:43:06;;;;;;;4.18;1.35;;;;;;;13.12;60.23;99576.78;344775;28;1079;-73
2022/01/03 00:43:18;;;;;;;3.47;1.40;;;;;;;13.02;60.69;99590.28;344691;28;1150;-73
2022/01/03 00:43:31;;;;;;;3.05;1.52;;;;;;;13.00;60.95;99582.56;345006;28;1233;-73
2022/01/03 00:43:46;;;;;;;3.50;1.30;;;;;;;12.97;61.42;99556.59;344851;28;1050;-73
2022/01/03 00:43:58;;;;;;;3.53;1.15;;;;;;;12.99;60.99;99544.31;344868;28;1316;-72
2022/01/03 00:44:12;;;;;;;4.10;1.13;;;;;;;13.00;60.97;99540.81;344960;28;1058;-73
2022/01/03 00:44:25;;;;;;;4.65;1.23;;;;;;;13.03;60.82;99548.47;343926;28;1067;-73
2022/01/03 00:44:43;;;;;;;3.38;1.20;;;;;;;13.00;61.14;99556.47;344833;28;1079;-73
2022/01/03 00:44:55;;;;;;;3.90;1.30;;;;;;;12.96;60.99;99549.69;344717;28;1047;-73
2022/01/03 00:45:07;;;;;;;6.30;1.58;;;;;;;12.98;61.28;99568.72;344825;28;1079;-73
2022/01/03 00:45:22;;;;;;;6.80;1.50;;;;;;;12.97;61.28;99559.19;344893;28;1060;-73
2022/01/03 00:45:35;;;;;;;4.03;1.15;;;;;;;12.98;61.06;99532.19;344829;28;1171;-73
2022/01/03 00:45:51;;;;;;;3.15;1.08;;;;;;;13.05;61.03;99558.84;344974;28;1047;-73
2022/01/03 00:46:04;;;;;;;3.58;1.20;;;;;;;12.98;61.24;99568.72;344814;28;1055;-73
2022/01/03 00:46:17;;;;;;;3.35;1.20;;;;;;;12.98;61.40;99553.06;345020;28;1279;-73
2022/01/03 00:46:31;;;;;;;3.08;1.17;;;;;;;13.02;61.25;99549.41;344780;28;1068;-73
2022/01/03 00:46:46;;;;;;;2.45;1.10;;;;;;;12.97;61.40;99552.19;345087;28;1087;-73
2022/01/03 00:46:58;;;;;;;4.32;1.33;;;;;;;13.02;61.10;99565.06;344921;28;1059;-72
2022/01/03 00:47:11;;;;;;;4.55;1.40;;;;;;;13.03;61.14;99551.09;345058;28;1072;-72
2022/01/03 00:47:22;;;;;;;4.55;1.30;;;;;;;13.06;61.33;99570.97;345011;28;1063;-73
2022/01/03 00:47:35;;;;;;;4.47;1.15;;;;;;;13.02;61.09;99570.28;344870;28;1056;-73
2022/01/03 00:47:47;;;;;;;5.32;1.20;;;;;;;13.01;61.14;99563.34;344893;28;1083;-73
2022/01/03 00:47:59;;;;;;;4.30;1.30;;;;;;;12.97;60.89;99569.63;344929;28;1103;-73
2022/01/03 00:48:12;;;;;;;3.83;1.23;;;;;;;13.01;61.16;99579.00;344946;28;1210;-73
2022/01/03 00:48:32;;;;;;;6.65;1.38;;;;;;;12.98;61.15;99537.41;344916;28;1172;-72
2022/01/03 00:48:44;;;;;;;6.85;1.60;;;;;;;13.01;60.85;99571.19;344835;28;989;-74
2022/01/03 00:48:59;;;;;;;4.38;1.30;;;;;;;13.02;60.77;99552.03;344943;28;1262;-72
2022/01/03 00:49:11;;;;;;;4.03;1.17;;;;;;;12.97;60.58;99593.94;344874;28;1090;-73
2022/01/03 00:49:23;;;;;;;4.57;1.20;;;;;;;13.06;60.43;99529.22;345190;28;1070;-73
2022/01/03 00:49:41;;;;;;;3.97;1.20;;;;;;;13.04;60.89;99565.84;344971;28;1127;-72
2022/01/03 00:49:53;;;;;;;5.38;1.23;;;;;;;13.07;60.86;99568.31;345085;28;1180;-73
2022/01/03 00:50:16;;;;;;;5.70;1.20;;;;;;;12.98;60.92;99559.13;345135;28;1099;-73
2022/01/03 00:50:29;;;;;;;3.30;1.10;;;;;;;13.01;61.06;99610.31;344982;28;1288;-72
2022/01/03 00:50:41;;;;;;;4.28;1.30;;;;;;;13.03;60.95;99569.34;344828;28;1386;-73
2022/01/03 00:50:53;;;;;;;3.63;1.20;;;;;;;13.02;60.77;99570.28;345071;28;1321;-73
2022/01/03 00:51:06;;;;;;;3.47;1.20;;;;;;;12.99;61.11;99586.91;344917;28;1105;-73
2022/01/03 00:51:19;;;;;;;4.25;1.38;;;;;;;12.99;60.88;99586.06;344902;28;1035;-73
2022/01/03 00:51:32;;;;;;;4.25;1.40;;;;;;;12.98;61.33;99571.34;344862;28;1035;-73
2022/01/03 00:51:44;;;;;;;2.75;1.10;;;;;;;13.00;61.27;99572.13;344938;28;1054;-72
2022/01/03 00:51:56;;;;;;;4.05;1.05;;;;;;;13.03;61.35;99561.53;344824;28;1247;-73
2022/01/03 00:52:11;;;;;;;5.90;1.27;;;;;;;13.02;61.01;99580.72;344863;28;1037;-72
2022/01/03 00:52:23;;;;;;;6.95;1.38;;;;;;;13.02;61.29;99583.34;344845;28;1190;-72
2022/01/03 00:52:35;;;;;;;6.28;1.40;;;;;;;13.06;61.20;99560.53;344930;28;1156;-72
2022/01/03 00:52:47;;;;;;;5.50;1.48;;;;;;;13.08;61.05;99592.63;344721;28;1095;-73
2022/01/03 00:53:03;;;;;;;4.95;1.33;;;;;;;13.04;61.21;99576.28;344964;28;1071;-72
2022/01/03 00:53:17;;;;;;;5.18;1.27;;;;;;;12.98;61.42;99584.38;344967;28;1295;-72
2022/01/03 00:53:29;;;;;;;3.75;1.30;;;;;;;12.93;61.22;99560.25;343351;28;1067;-73
2022/01/03 00:53:41;;;;;;;3.55;1.30;;;;;;;12.93;61.24;99560.25;345000;28;1103;-73
2022/01/03 00:53:53;;;;;;;3.70;1.25;;;;;;;12.94;61.31;99556.72;344908;28;1047;-73
2022/01/03 00:54:06;;;;;;;3.92;1.30;;;;;;;12.90;61.45;99597.75;344865;28;1111;-73
2022/01/03 00:54:20;;;;;;;4.03;1.30;;;;;;;12.93;61.41;99592.38;344911;28;1015;-72
2022/01/03 00:54:32;;;;;;;4.45;1.30;;;;;;;12.93;61.00;99575.88;345134;28;1071;-72
2022/01/03 00:54:48;;;;;;;3.97;1.17;;;;;;;12.91;61.08;99590.75;344887;28;1013;-73
2022/01/03 00:55:07;;;;;;;3.53;1.00;;;;;;;12.88;60.86;99583.09;344924;28;1294;-72
2022/01/03 00:55:22;;;;;;;3.95;1.13;;;;;;;12.91;60.99;99568.13;344042;28;1373;-72
2022/01/03 00:56:14;;;;;;;5.90;1.30;;;;;;;12.98;61.17;99584.38;344855;28;1019;-72
2022/01/03 00:56:34;;;;;;;4.30;1.20;;;;;;;12.94;61.23;99567.16;342914;28;1218;-73
2022/01/03 00:56:54;;;;;;;4.00;1.15;;;;;;;12.98;61.13;99563.50;344781;28;1194;-73
2022/01/03 00:57:19;;;;;;;5.20;1.30;;;;;;;12.95;61.78;99574.06;345019;28;1051;-72
2022/01/03 00:57:34;;;;;;;4.38;1.20;;;;;;;12.96;61.15;99583.59;344708;28;1906;-73
2022/01/03 00:58:07;;;;;;;4.70;1.30;;;;;;;12.93;61.38;99591.53;344978;28;1159;-73
2022/01/03 00:58:26;;;;;;;6.43;1.48;;;;;;;12.93;61.29;99586.31;344914;28;1095;-74
2022/01/03 00:58:53;;;;;;;5.65;1.38;;;;;;;12.95;61.31;99569.69;344912;28;1023;-73
2022/01/03 00:59:09;;;;;;;4.93;1.27;;;;;;;12.98;60.88;99589.59;345034;28;1022;-72
2022/01/03 00:59:24;;;;;;;5.72;1.27;;;;;;;13.01;61.08;99575.56;344886;28;1273;-73
2022/01/03 00:59:49;;;;;;;5.13;1.20;;;;;;;13.12;60.71;99566.34;345018;28;1091;-73
2022/01/03 01:00:06;;;;;;;4.57;1.30;;;;;;;13.06;61.13;99564.00;344891;28;1249;-72
2022/01/03 01:00:19;;;;;;;4.47;1.25;;;;;;;13.12;61.10;99581.13;344902;28;1098;-73
2022/01/03 01:00:36;;;;;;;4.68;1.20;;;;;;;13.04;60.88;99568.47;344829;28;1075;-73
2022/01/03 01:00:54;;;;;;;4.22;1.40;;;;;;;13.04;61.08;99572.81;345066;28;1131;-72
2022/01/03 01:01:10;;;;;;;4.25;1.38;;;;;;;13.09;60.88;99584.75;344924;28;1327;-72
2022/01/03 01:01:27;;;;;;;4.22;1.30;;;;;;;13.01;61.45;99581.63;344935;28;1105;-73
2022/01/03 01:01:52;;;;;;;5.25;1.40;;;;;;;13.00;61.39;99593.00;343409;28;1209;-72
2022/01/03 01:02:08;;;;;;;3.83;1.08;;;;;;;12.98;61.01;99569.56;343388;28;1024;-73
2022/01/03 01:02:25;;;;;;;4.68;1.27;;;;;;;12.99;61.57;99573.84;343568;28;1004;-73
2022/01/03 01:02:54;;;;;;;6.10;1.60;;;;;;;12.94;61.57;99582.81;343478;28;1088;-73
2022/01/03 01:03:12;;;;;;;3.35;1.20;;;;;;;13.05;61.35;99559.69;343401;28;1253;-73
2022/01/03 01:03:41;;;;;;;4.30;1.20;;;;;;;12.97;60.99;99582.66;343517;28;1496;-73
2022/01/03 01:03:55;;;;;;;6.78;1.50;;;;;;;12.99;61.27;99570.41;344823;28;1304;-72
2022/01/03 01:04:09;;;;;;;5.80;1.40;;;;;;;12.99;61.18;99565.19;345179;28;1015;-73
2022/01/03 01:04:22;;;;;;;5.10;1.38;;;;;;;12.98;61.14;99573.94;344972;28;1309;-73
2022/01/03 01:04:34;;;;;;;6.47;1.30;;;;;;;12.93;61.01;99573.28;344929;28;1236;-73
2022/01/03 01:04:46;;;;;;;6.03;1.30;;;;;;;12.93;61.40;99587.16;344663;28;1027;-73
2022/01/03 01:04:59;;;;;;;6.07;1.40;;;;;;;13.01;61.05;99576.41;344983;28;1063;-72
2022/01/03 01:05:11;;;;;;;5.05;1.30;;;;;;;12.98;61.08;99610.47;344849;28;1060;-73
2022/01/03 01:05:23;;;;;;;6.63;1.30;;;;;;;12.99;60.94;99592.13;344940;28;1063;-72
2022/01/03 01:05:41;;;;;;;5.45;1.10;;;;;;;13.01;60.93;99594.66;344699;28;1059;-72
2022/01/03 01:05:53;;;;;;;3.08;1.00;;;;;;;12.93;61.29;99588.94;344865;28;1139;-73
2022/01/03 01:06:07;;;;;;;4.22;1.27;;;;;;;13.01;61.04;99588.59;344917;28;1073;-73
2022/01/03 01:06:21;;;;;;;5.63;1.98;;;;;;;13.04;60.98;99589.34;344865;28;1142;-73
2022/01/03 01:06:36;;;;;;;5.75;2.10;;;;;;;13.13;60.57;99572.41;344968;28;1203;-72
2022/01/03 01:06:54;;;;;;;4.28;1.48;;;;;;;13.00;61.08;99603.44;344954;28;1095;-73
2022/01/03 01:07:06;;;;;;;5.80;1.40;;;;;;;13.00;60.76;99593.00;344782;28;1106;-73
2022/01/03 01:07:19;;;;;;;7.15;1.33;;;;;;;13.01;61.16;99599.03;344842;28;1077;-72
2022/01/03 01:07:32;;;;;;;5.50;1.30;;;;;;;12.95;61.37;99597.53;345025;28;1047;-73
2022/01/03 01:07:46;;;;;;;4.32;1.30;;;;;;;12.90;61.62;99591.69;344847;28;1122;-73
2022/01/03 01:07:58;;;;;;;4.10;1.17;;;;;;;12.88;61.37;99593.53;344882;28;1011;-72
2022/01/03 01:08:11;;;;;;;5.68;1.30;;;;;;;12.87;61.55;99589.19;344825;28;1028;-73
2022/01/03 01:08:26;;;;;;;6.18;1.40;;;;;;;12.85;61.62;99572.78;344843;28;1056;-73
2022/01/03 01:08:43;;;;;;;5.43;1.40;;;;;;;12.89;61.63;99579.53;344886;28;1091;-73
2022/01/03 01:08:58;;;;;;;4.85;1.55;;;;;;;12.88;61.46;99577.88;344925;28;1059;-73
2022/01/03 01:09:13;;;;;;;5.25;1.48;;;;;;;12.86;61.36;99590.09;344933;28;1144;-73
2022/01/03 01:09:27;;;;;;;5.78;1.40;;;;;;;12.92;61.39;99605.53;345179;28;1067;-73
2022/01/03 01:09:40;;;;;;;5.40;1.40;;;;;;;12.84;61.65;99589.31;345039;28;1039;-73
2022/01/03 01:09:53;;;;;;;5.40;1.45;;;;;;;12.86;61.51;99590.09;344808;28;1154;-73
2022/01/03 01:10:06;;;;;;;5.05;1.40;;;;;;;12.86;61.65;99590.09;344919;28;1201;-72
2022/01/03 01:10:18;;;;;;;5.03;1.38;;;;;;;12.81;61.90;99586.88;344736;28;1225;-73
2022/01/03 01:10:34;;;;;;;6.65;1.45;;;;;;;12.86;61.65;99590.97;344761;28;1063;-73
2022/01/03 01:10:50;;;;;;;7.25;1.55;;;;;;;12.91;61.52;99589.00;344941;28;1152;-73
2022/01/03 01:11:05;;;;;;;6.35;1.45;;;;;;;12.93;61.12;99581.13;345191;28;1048;-72
2022/01/03 01:11:17;;;;;;;6.97;1.50;;;;;;;12.86;61.53;99583.16;344856;28;1149;-73
2022/01/03 01:11:30;;;;;;;5.95;1.30;;;;;;;12.84;61.69;99586.72;344983;28;1030;-73
2022/01/03 01:11:47;;;;;;;5.60;1.20;;;;;;;12.79;61.94;99600.78;344633;28;1051;-73
2022/01/03 01:12:00;;;;;;;8.05;1.63;;;;;;;12.75;61.95;99599.22;344939;28;1080;-73
2022/01/03 01:12:15;;;;;;;6.75;1.60;;;;;;;12.83;61.84;99574.59;344654;28;968;-73
2022/01/03 01:12:31;;;;;;;4.68;1.30;;;;;;;12.83;61.59;99596.31;343480;28;1001;-72
2022/01/03 01:12:49;;;;;;;5.43;1.42;;;;;;;12.87;61.48;99570.94;343384;28;1180;-72
2022/01/03 01:13:10;;;;;;;5.63;1.60;;;;;;;12.90;61.16;99623.84;343456;28;988;-72